Time;durP1;ratioP1;P1;durP2;ratioP2;P2;SDS_P1;SDS_P2;PMS_P1;PMS_P2;Temp;Humidity;BMP_temperature;BMP_pressure;BME280_temperature;BME280_humidity;BME280_pressure;Samples;Min_cycle;Max_cycle;Signal;HPM_P1;HPM_P2
2021/07/14 00:02:26;;;;;;;3.03;0.70;;;;;;;13.32;97.17;95108.72;5047017;28;20735;-73
2021/07/14 00:04:54;;;;;;;5.03;0.80;;;;;;;13.31;97.12;95117.72;5052929;28;20275;-73
2021/07/14 00:07:22;;;;;;;2.17;1.17;;;;;;;13.29;97.24;95125.06;5052070;28;20225;-73
2021/07/14 00:09:51;;;;;;;0.50;0.33;;;;;;;13.25;97.60;95123.84;5045208;28;20345;-73
2021/07/14 00:12:19;;;;;;;2.80;0.50;;;;;;;13.20;97.76;95118.41;5061201;28;20218;-73
2021/07/14 00:22:05;;;;;;;3.83;0.50;;;;;;;13.12;97.27;95128.41;5025406;28;20760;-74
2021/07/14 00:23:28;;;;;;;0.50;0.50;;;;;;;12.95;97.58;95123.59;5043237;28;20215;-73
2021/07/14 00:25:57;;;;;;;0.33;0.33;;;;;;;12.92;97.80;95117.91;5062172;28;20290;-73
2021/07/14 00:28:25;;;;;;;0.53;0.53;;;;;;;12.83;97.66;95125.28;5048080;28;20289;-73
2021/07/14 00:30:56;;;;;;;0.70;0.60;;;;;;;12.82;97.73;95124.47;5042958;28;20250;-74
2021/07/14 00:33:26;;;;;;;1.13;0.80;;;;;;;12.77;97.55;95120.81;5045171;28;20331;-73
2021/07/14 00:35:55;;;;;;;3.47;1.60;;;;;;;12.72;97.68;95129.41;5034310;28;20699;-73
2021/07/14 00:38:23;;;;;;;4.33;1.00;;;;;;;12.72;97.58;95126.75;5045912;28;20230;-73
2021/07/14 00:40:52;;;;;;;3.00;0.80;;;;;;;12.69;97.47;95140.41;5046076;28;20734;-73
2021/07/14 00:43:20;;;;;;;0.97;0.60;;;;;;;12.61;97.80;95131.88;5052377;28;20214;-73
2021/07/14 00:45:48;;;;;;;10.33;1.17;;;;;;;12.52;98.39;95118.06;5061051;28;20755;-73
2021/07/14 00:48:24;;;;;;;3.03;0.97;;;;;;;12.48;98.40;95106.28;5050710;28;20240;-73
2021/07/14 00:50:53;;;;;;;8.03;0.60;;;;;;;12.52;98.49;95112.78;5058706;28;20241;-73
2021/07/14 00:53:21;;;;;;;0.70;0.70;;;;;;;12.51;98.12;95116.44;5047507;28;20217;-73
2021/07/14 00:55:50;;;;;;;5.80;0.83;;;;;;;12.55;98.35;95127.44;5049355;28;20215;-73
2021/07/14 00:58:19;;;;;;;4.07;0.90;;;;;;;12.56;98.82;95123.78;5039907;28;20272;-74
2021/07/14 01:00:47;;;;;;;3.83;0.50;;;;;;;12.60;98.63;95123.13;5055405;28;20223;-73
2021/07/14 01:03:23;;;;;;;9.20;0.90;;;;;;;12.53;98.77;95125.81;5017952;28;20707;-73
2021/07/14 01:05:55;;;;;;;1.07;0.77;;;;;;;12.48;98.89;95125.63;5026705;28;20225;-73
2021/07/14 01:08:28;;;;;;;1.10;0.60;;;;;;;12.46;98.91;95124.22;5052046;28;20215;-73
2021/07/14 01:11:02;;;;;;;0.60;0.50;;;;;;;12.44;98.94;95131.56;5048340;28;20300;-74
2021/07/14 01:13:36;;;;;;;2.60;1.00;;;;;;;12.46;99.05;95129.50;5029605;28;20578;-74
2021/07/14 01:16:07;;;;;;;0.33;0.30;;;;;;;12.46;99.00;95122.38;5043096;28;20226;-73
2021/07/14 01:18:42;;;;;;;3.27;1.30;;;;;;;12.44;98.83;95126.25;5039489;28;20465;-73
2021/07/14 01:21:17;;;;;;;0.57;0.57;;;;;;;12.47;98.81;95131.94;5036855;28;20224;-73
2021/07/14 01:23:53;;;;;;;0.63;0.63;;;;;;;12.47;98.79;95131.13;5062004;28;20278;-73
2021/07/14 01:26:37;;;;;;;1.70;0.50;;;;;;;12.46;98.60;95124.22;5027751;28;20233;-73
2021/07/14 01:29:08;;;;;;;0.47;0.47;;;;;;;12.46;98.42;95135.59;5028998;28;20225;-73
2021/07/14 01:31:38;;;;;;;0.50;0.50;;;;;;;12.42;98.67;95130.91;5036494;28;20286;-73
2021/07/14 01:34:08;;;;;;;1.00;0.60;;;;;;;12.42;98.61;95133.56;5030730;28;20242;-74
2021/07/14 01:36:37;;;;;;;3.13;0.67;;;;;;;12.39;98.55;95134.00;5039605;28;20505;-73
2021/07/14 01:39:06;;;;;;;0.50;0.50;;;;;;;12.38;98.08;95138.47;5039639;28;20313;-73
2021/07/14 01:41:37;;;;;;;4.93;1.90;;;;;;;12.36;98.62;95134.41;5051461;28;20314;-73
2021/07/14 01:44:07;;;;;;;4.97;1.27;;;;;;;12.37;98.50;95123.63;5043555;28;20315;-73
2021/07/14 01:46:37;;;;;;;30.67;3.17;;;;;;;12.32;98.33;95119.97;5048607;28;20242;-73
2021/07/14 01:49:12;;;;;;;2.20;0.40;;;;;;;12.32;98.22;95127.91;5039825;28;20225;-73
2021/07/14 01:51:42;;;;;;;2.10;0.53;;;;;;;12.33;97.85;95118.94;5056290;28;20272;-73
2021/07/14 01:54:14;;;;;;;0.80;0.67;;;;;;;12.27;97.67;95114.50;5043399;28;20250;-73
2021/07/14 01:56:45;;;;;;;1.33;1.23;;;;;;;12.23;98.09;95109.59;5046550;28;20233;-73
2021/07/14 01:59:18;;;;;;;1.23;0.50;;;;;;;12.23;98.23;95103.50;5042516;28;20393;-73
2021/07/14 02:01:47;;;;;;;0.50;0.33;;;;;;;12.24;98.55;95095.34;5068989;28;20217;-74
2021/07/14 02:04:33;;;;;;;1.10;0.67;;;;;;;12.26;98.81;95091.72;5034345;28;20301;-73
2021/07/14 02:07:05;;;;;;;0.47;0.47;;;;;;;12.26;98.88;95094.34;5042554;28;20598;-73
2021/07/14 02:09:34;;;;;;;0.30;0.30;;;;;;;12.28;98.86;95090.47;5057914;28;20222;-73
2021/07/14 02:12:04;;;;;;;0.30;0.30;;;;;;;12.29;98.49;95093.94;5063222;28;20255;-73
2021/07/14 02:14:38;;;;;;;0.73;0.37;;;;;;;12.28;98.36;95094.97;5062808;28;20253;-73
2021/07/14 02:17:14;;;;;;;0.37;0.27;;;;;;;12.30;98.17;95108.78;5046976;28;20574;-73
2021/07/14 02:19:47;;;;;;;1.10;0.97;;;;;;;12.35;98.01;95116.91;5027448;28;20257;-73
2021/07/14 02:22:15;;;;;;;0.30;0.30;;;;;;;12.38;97.81;95116.50;5064871;28;20211;-73
2021/07/14 02:24:44;;;;;;;0.70;0.70;;;;;;;12.33;97.73;95103.06;5064640;28;20307;-73
2021/07/14 02:27:12;;;;;;;0.40;0.40;;;;;;;12.30;97.85;95098.19;5058258;28;20221;-73
2021/07/14 02:29:42;;;;;;;2.37;0.80;;;;;;;12.30;98.07;95098.19;5058808;28;20322;-73
2021/07/14 02:32:15;;;;;;;1.00;0.37;;;;;;;12.33;98.44;95103.06;5025420;28;20222;-73
2021/07/14 02:34:44;;;;;;;2.30;0.93;;;;;;;12.28;98.51;95094.97;5042303;28;20215;-73
2021/07/14 02:37:16;;;;;;;7.57;1.03;;;;;;;12.22;98.76;95086.81;5059344;28;20229;-73
2021/07/14 02:39:48;;;;;;;0.33;0.30;;;;;;;12.24;98.93;95100.63;5048038;28;20684;-73
2021/07/14 02:42:25;;;;;;;1.80;0.53;;;;;;;12.25;99.03;95101.44;5056444;28;20218;-73
2021/07/14 02:44:55;;;;;;;1.07;0.40;;;;;;;12.22;99.06;95096.59;5055137;28;20667;-73
2021/07/14 02:47:23;;;;;;;0.60;0.40;;;;;;;12.20;99.50;95090.69;5044577;28;20749;-74
2021/07/14 02:49:52;;;;;;;13.00;1.13;;;;;;;12.20;99.47;95096.78;5060516;28;20250;-73
2021/07/14 02:52:23;;;;;;;0.60;0.60;;;;;;;12.21;99.45;95101.06;5049793;28;20229;-73
2021/07/14 02:54:52;;;;;;;0.40;0.30;;;;;;;12.22;99.51;95107.97;5057609;28;20237;-73
2021/07/14 02:57:21;;;;;;;2.27;0.40;;;;;;;12.26;99.42;95104.94;5051394;28;20530;-73
2021/07/14 02:59:54;;;;;;;0.93;0.53;;;;;;;12.26;99.42;95099.66;5051490;28;20309;-73
2021/07/14 03:02:26;;;;;;;4.60;0.60;;;;;;;12.27;99.30;95093.34;5056459;28;20222;-73
2021/07/14 03:04:55;;;;;;;2.00;0.30;;;;;;;12.26;99.29;95097.81;5052529;28;20242;-74
2021/07/14 03:07:26;;;;;;;1.30;0.40;;;;;;;12.26;99.39;95097.81;5053827;28;20214;-70
2021/07/14 03:09:55;;;;;;;0.40;0.40;;;;;;;12.23;99.58;95104.31;5053115;28;20715;-70
2021/07/14 03:12:26;;;;;;;0.40;0.40;;;;;;;12.21;99.44;95106.34;5056710;28;20622;-70
2021/07/14 03:14:57;;;;;;;2.00;0.27;;;;;;;12.16;99.61;95102.69;5044938;28;20230;-70
2021/07/14 03:17:31;;;;;;;0.33;0.30;;;;;;;12.10;99.24;95104.34;5039984;28;20218;-70
2021/07/14 03:20:02;;;;;;;0.80;0.50;;;;;;;12.13;99.25;95103.94;5048952;28;20222;-69
2021/07/14 03:22:31;;;;;;;0.50;0.20;;;;;;;12.11;99.05;95100.69;5040719;28;20222;-70
2021/07/14 03:25:00;;;;;;;0.47;0.30;;;;;;;12.09;99.06;95094.78;5053717;28;20241;-70
2021/07/14 03:27:28;;;;;;;0.67;0.57;;;;;;;12.10;99.08;95099.06;5039984;28;20280;-69
2021/07/14 03:29:58;;;;;;;0.67;0.67;;;;;;;12.15;98.98;95107.19;5045730;28;20310;-71
2021/07/14 03:32:28;;;;;;;0.23;0.23;;;;;;;12.13;98.69;95098.63;5032389;28;20226;-70
2021/07/14 03:34:56;;;;;;;0.50;0.47;;;;;;;12.08;98.61;95095.81;5048933;28;20541;-70
2021/07/14 03:37:25;;;;;;;0.33;0.33;;;;;;;12.05;98.60;95096.22;5046798;28;20218;-70
2021/07/14 03:39:54;;;;;;;0.30;0.30;;;;;;;12.10;98.59;95107.00;5026539;28;20626;-70
2021/07/14 03:42:25;;;;;;;0.77;0.63;;;;;;;12.15;97.96;95109.81;5054560;28;20628;-70
2021/07/14 03:44:54;;;;;;;2.30;1.37;;;;;;;12.20;97.59;95114.50;5046931;28;20273;-70
2021/07/14 03:47:24;;;;;;;0.60;0.53;;;;;;;12.24;97.53;95110.41;5049573;28;20252;-70
2021/07/14 03:49:55;;;;;;;1.17;0.47;;;;;;;12.27;97.76;95101.28;5039394;28;20222;-70
2021/07/14 03:52:25;;;;;;;1.17;0.40;;;;;;;12.27;97.74;95109.22;5071076;28;20256;-70
2021/07/14 03:54:54;;;;;;;0.27;0.27;;;;;;;12.28;97.87;95113.47;5062231;28;20724;-70
2021/07/14 03:57:22;;;;;;;0.50;0.50;;;;;;;12.30;98.10;95120.19;5055177;28;20245;-69
2021/07/14 03:59:51;;;;;;;0.30;0.30;;;;;;;12.33;98.27;95124.22;5056480;28;20211;-70
2021/07/14 04:02:19;;;;;;;0.30;0.20;;;;;;;12.36;98.26;95142.34;5059921;28;20758;-69
2021/07/14 04:04:50;;;;;;;1.37;1.00;;;;;;;12.49;97.44;95145.75;5050692;28;20226;-70
2021/07/14 04:07:25;;;;;;;4.63;0.77;;;;;;;12.53;96.63;95146.19;5040665;28;20302;-70
2021/07/14 04:09:53;;;;;;;0.63;0.50;;;;;;;12.52;96.42;95141.88;5029229;28;20965;-70
2021/07/14 04:12:22;;;;;;;1.03;0.93;;;;;;;12.53;96.79;95151.47;5031325;28;20226;-70
2021/07/14 04:14:50;;;;;;;2.70;0.80;;;;;;;12.66;96.17;95146.13;5061462;28;20276;-69
2021/07/14 04:17:18;;;;;;;0.40;0.30;;;;;;;12.71;96.01;95158.72;5049009;28;20830;-69
2021/07/14 04:19:47;;;;;;;0.50;0.50;;;;;;;12.65;96.06;95155.09;5047897;28;20623;-70
2021/07/14 04:22:15;;;;;;;1.03;0.50;;;;;;;12.65;96.35;95152.44;5067044;28;20252;-70
2021/07/14 04:24:45;;;;;;;4.40;2.40;;;;;;;12.63;96.62;95151.03;5044157;28;20240;-70
2021/07/14 04:27:13;;;;;;;1.37;0.60;;;;;;;12.65;96.85;95144.50;5046109;28;20551;-70
2021/07/14 04:29:41;;;;;;;1.13;0.67;;;;;;;12.63;97.33;95149.19;5061828;28;20690;-70
2021/07/14 04:32:09;;;;;;;0.37;0.37;;;;;;;12.65;97.34;95149.78;5052352;28;20632;-70
2021/07/14 04:34:38;;;;;;;0.50;0.50;;;;;;;12.69;97.59;95150.19;5061436;28;20722;-70
2021/07/14 04:37:06;;;;;;;1.07;0.63;;;;;;;12.74;97.65;95147.72;5043424;28;20725;-70
2021/07/14 04:39:34;;;;;;;1.30;1.07;;;;;;;12.78;97.60;95144.44;5056779;28;20249;-70
2021/07/14 04:42:04;;;;;;;0.90;0.90;;;;;;;12.89;97.03;95137.66;5030939;28;20709;-70
2021/07/14 04:44:35;;;;;;;1.13;0.40;;;;;;;12.95;96.89;95136.03;5055109;28;20641;-70
2021/07/14 04:47:04;;;;;;;0.50;0.50;;;;;;;12.96;96.85;95135.81;5054115;28;20416;-70
2021/07/14 04:49:32;;;;;;;4.63;0.90;;;;;;;13.05;96.79;95136.38;5061107;28;20218;-70
2021/07/14 04:52:00;;;;;;;2.20;1.53;;;;;;;13.08;97.16;95133.31;5074341;28;25067;-70
2021/07/14 04:54:28;;;;;;;0.63;0.50;;;;;;;13.10;97.01;95136.56;5045225;28;20589;-70
2021/07/14 04:56:57;;;;;;;0.40;0.27;;;;;;;13.11;96.88;95135.53;5050202;28;20264;-69
2021/07/14 04:59:26;;;;;;;1.33;0.60;;;;;;;13.15;96.94;95139.38;5060502;28;20246;-70
2021/07/14 05:01:54;;;;;;;0.50;0.50;;;;;;;13.20;96.90;95136.13;5055636;28;20226;-69
2021/07/14 05:04:22;;;;;;;1.70;1.50;;;;;;;13.25;96.73;95139.75;5044807;28;20711;-70
2021/07/14 05:06:50;;;;;;;0.93;0.80;;;;;;;13.28;96.34;95128.75;5060118;28;20257;-70
2021/07/14 05:09:19;;;;;;;1.70;1.27;;;;;;;13.34;95.79;95116.47;5026971;28;20315;-69
2021/07/14 05:11:46;;;;;;;0.77;0.77;;;;;;;13.44;95.58;95116.00;5055450;28;20325;-69
2021/07/14 05:14:14;;;;;;;2.50;0.70;;;;;;;13.51;95.50;95117.56;5061034;28;20695;-70
2021/07/14 05:16:44;;;;;;;1.00;0.80;;;;;;;13.49;95.70;95113.53;5049666;28;20268;-70
2021/07/14 05:19:14;;;;;;;1.37;1.20;;;;;;;13.49;95.85;95102.91;5047606;28;20225;-70
2021/07/14 05:21:42;;;;;;;0.80;0.80;;;;;;;13.50;95.33;95088.63;5065685;28;20467;-70
2021/07/14 05:24:11;;;;;;;2.00;1.27;;;;;;;13.49;95.40;95081.72;5063869;28;20395;-70
2021/07/14 05:26:39;;;;;;;1.57;0.60;;;;;;;13.60;94.88;95083.66;5033408;28;20229;-69
2021/07/14 05:29:08;;;;;;;6.03;1.53;;;;;;;13.32;95.01;95082.22;5046855;28;20292;-70
2021/07/14 05:31:36;;;;;;;4.30;2.07;;;;;;;13.29;95.30;95077.38;5044260;28;20256;-70
2021/07/14 05:34:05;;;;;;;1.43;1.07;;;;;;;13.31;95.57;95085.91;5061033;28;20610;-69
2021/07/14 05:36:33;;;;;;;1.43;1.33;;;;;;;13.33;95.51;95081.19;5055872;28;20246;-69
2021/07/14 05:39:01;;;;;;;3.13;1.93;;;;;;;13.23;95.74;95080.88;5059654;28;20241;-69
2021/07/14 05:41:29;;;;;;;0.63;0.63;;;;;;;13.20;96.32;95089.25;5062699;28;20241;-69
2021/07/14 05:43:57;;;;;;;0.97;0.90;;;;;;;13.23;95.79;95088.00;5062696;28;20316;-69
2021/07/14 05:46:26;;;;;;;3.10;1.10;;;;;;;13.30;96.01;95094.88;5062509;28;20320;-70
2021/07/14 05:48:55;;;;;;;0.93;0.70;;;;;;;13.22;95.34;95099.63;5059980;28;20501;-70
2021/07/14 05:51:25;;;;;;;1.33;1.23;;;;;;;13.15;95.66;95107.59;5066826;28;20254;-69
2021/07/14 05:53:53;;;;;;;1.57;1.33;;;;;;;13.23;95.20;95101.25;5060024;28;20724;-70
2021/07/14 05:56:21;;;;;;;1.07;1.07;;;;;;;13.32;95.52;95113.22;5059128;28;20354;-69
2021/07/14 05:58:48;;;;;;;2.30;1.30;;;;;;;13.46;95.23;95116.59;5066060;28;20230;-70
2021/07/14 06:01:16;;;;;;;1.10;1.10;;;;;;;13.46;95.97;95114.78;5063212;28;20230;-70
2021/07/14 06:03:44;;;;;;;0.87;0.87;;;;;;;13.51;94.61;95108.81;5041176;28;20303;-70
2021/07/14 06:06:12;;;;;;;0.90;0.80;;;;;;;13.61;94.09;95128.50;5053474;28;20226;-70
2021/07/14 06:08:42;;;;;;;1.20;1.10;;;;;;;13.57;94.22;95121.22;5058181;28;20754;-70
2021/07/14 06:11:11;;;;;;;1.23;1.13;;;;;;;13.51;95.15;95122.88;5053611;28;20287;-70
2021/07/14 06:13:39;;;;;;;0.77;0.77;;;;;;;13.53;95.47;95125.31;5062171;28;20232;-69
2021/07/14 06:16:07;;;;;;;1.20;1.10;;;;;;;13.57;95.65;95115.91;5044435;28;20242;-70
2021/07/14 06:18:36;;;;;;;1.43;1.10;;;;;;;13.77;94.52;95113.09;5040045;28;20218;-70
2021/07/14 06:21:04;;;;;;;1.20;1.10;;;;;;;13.83;94.45;95115.69;5048628;28;20312;-70
2021/07/14 06:23:32;;;;;;;4.00;0.93;;;;;;;14.04;93.94;95116.34;5052718;28;20229;-70
2021/07/14 06:26:02;;;;;;;1.00;0.90;;;;;;;14.13;94.13;95110.53;5046701;28;20238;-70
2021/07/14 06:28:31;;;;;;;1.63;1.53;;;;;;;14.00;93.62;95105.34;5050125;28;20471;-70
2021/07/14 06:31:03;;;;;;;1.13;1.03;;;;;;;14.30;92.57;95100.16;5055323;28;20678;-69
2021/07/14 06:33:34;;;;;;;1.33;1.23;;;;;;;14.39;92.31;95104.13;5043261;28;20242;-70
2021/07/14 06:36:03;;;;;;;1.00;1.00;;;;;;;14.55;91.96;95107.28;5041856;28;20498;-70
2021/07/14 06:38:32;;;;;;;2.10;0.70;;;;;;;14.62;91.40;95108.78;5046664;28;20215;-70
2021/07/14 06:41:02;;;;;;;2.10;0.57;;;;;;;14.54;90.97;95103.81;5061078;28;20238;-71
2021/07/14 06:43:41;;;;;;;1.20;0.63;;;;;;;14.77;91.64;95106.56;5070667;28;20237;-70
2021/07/14 06:46:09;;;;;;;0.90;0.90;;;;;;;14.77;90.49;95105.78;5057349;28;20581;-69
2021/07/14 06:48:38;;;;;;;2.77;1.27;;;;;;;14.91;90.93;95114.41;5065799;28;20298;-70
2021/07/14 06:51:07;;;;;;;1.83;1.30;;;;;;;15.03;89.83;95121.38;5061597;28;20245;-70
2021/07/14 06:53:34;;;;;;;1.23;1.13;;;;;;;15.16;90.00;95125.69;5062905;28;20249;-70
2021/07/14 06:56:05;;;;;;;1.40;1.30;;;;;;;15.33;89.88;95128.53;5046376;28;20241;-70
2021/07/14 06:58:36;;;;;;;0.50;0.50;;;;;;;15.47;89.74;95119.34;5059038;28;20222;-70
2021/07/14 07:01:04;;;;;;;0.80;0.80;;;;;;;15.64;88.51;95125.66;5063918;28;20221;-70
2021/07/14 07:03:34;;;;;;;8.53;1.10;;;;;;;15.75;88.23;95140.03;5050848;28;20306;-70
2021/07/14 07:06:03;;;;;;;0.90;0.90;;;;;;;15.68;87.35;95147.28;5061775;28;21961;-70
2021/07/14 07:08:31;;;;;;;1.10;0.97;;;;;;;15.68;87.42;95149.13;5039158;28;20691;-70
2021/07/14 07:10:59;;;;;;;2.43;0.80;;;;;;;15.33;87.99;95147.16;5056892;28;20231;-69
2021/07/14 07:13:28;;;;;;;1.20;0.93;;;;;;;15.34;88.63;95148.75;5040715;28;20822;-70
2021/07/14 07:15:58;;;;;;;0.83;0.83;;;;;;;15.28;89.59;95144.38;5044340;28;20347;-70
2021/07/14 07:18:27;;;;;;;2.07;0.60;;;;;;;15.53;89.29;95137.03;5047448;28;20221;-70
2021/07/14 07:20:56;;;;;;;1.93;1.00;;;;;;;15.54;88.86;95127.19;5051565;28;20310;-70
2021/07/14 07:23:25;;;;;;;2.27;1.00;;;;;;;15.65;88.55;95131.78;5059311;28;20233;-70
2021/07/14 07:25:54;;;;;;;0.90;0.90;;;;;;;15.77;86.87;95131.81;5042032;28;20267;-70
2021/07/14 07:28:27;;;;;;;1.40;1.03;;;;;;;15.98;86.85;95138.41;5064511;28;20210;-70
2021/07/14 07:30:56;;;;;;;0.97;0.97;;;;;;;16.10;86.50;95137.41;5053697;28;20317;-69
2021/07/14 07:33:24;;;;;;;1.30;1.10;;;;;;;16.21;85.64;95144.59;5048341;28;20226;-70
2021/07/14 07:35:52;;;;;;;0.83;0.73;;;;;;;16.38;85.89;95149.22;5062654;28;20301;-69
2021/07/14 07:38:22;;;;;;;0.90;0.90;;;;;;;16.58;85.46;95155.00;5038661;28;20246;-70
2021/07/14 07:40:54;;;;;;;1.37;1.03;;;;;;;16.68;84.03;95165.88;5047151;28;20853;-70
2021/07/14 07:43:23;;;;;;;0.50;0.30;;;;;;;16.72;83.02;95172.34;5052587;28;20309;-70
2021/07/14 07:45:51;;;;;;;0.73;0.73;;;;;;;16.58;82.93;95168.31;5048619;28;20991;-70
2021/07/14 07:48:21;;;;;;;1.43;1.33;;;;;;;16.50;83.34;95168.66;5040133;28;20233;-70
2021/07/14 07:50:49;;;;;;;1.13;1.03;;;;;;;16.22;84.38;95169.34;5064007;28;20263;-70
2021/07/14 07:53:18;;;;;;;2.63;1.00;;;;;;;16.23;84.26;95162.16;5056757;28;20277;-70
2021/07/14 07:55:47;;;;;;;2.10;1.57;;;;;;;16.28;84.12;95165.78;5032033;28;20227;-70
2021/07/14 07:58:15;;;;;;;0.67;0.67;;;;;;;16.12;85.02;95169.94;5057682;28;20225;-69
2021/07/14 08:00:44;;;;;;;0.80;0.80;;;;;;;15.98;84.82;95173.00;5055151;28;20249;-70
2021/07/14 08:03:13;;;;;;;0.80;0.80;;;;;;;16.10;85.33;95158.69;5038914;28;20262;-69
2021/07/14 08:05:42;;;;;;;0.97;0.97;;;;;;;16.18;85.04;95150.38;5052243;28;20230;-70
2021/07/14 08:08:11;;;;;;;3.87;1.17;;;;;;;16.27;84.45;95158.00;5059441;28;22055;-69
2021/07/14 08:10:40;;;;;;;0.93;0.93;;;;;;;16.52;85.40;95171.88;5030976;28;20258;-70
2021/07/14 08:13:08;;;;;;;0.97;0.83;;;;;;;16.66;82.84;95173.28;5050318;28;20221;-70
2021/07/14 08:15:36;;;;;;;4.17;2.57;;;;;;;16.78;84.51;95160.78;5052694;28;20230;-70
2021/07/14 08:18:05;;;;;;;1.20;0.80;;;;;;;16.91;83.41;95162.34;5045765;28;20313;-70
2021/07/14 08:20:33;;;;;;;1.23;1.13;;;;;;;16.86;83.83;95158.78;5044096;28;20219;-70
2021/07/14 08:23:03;;;;;;;1.07;1.00;;;;;;;16.59;83.89;95158.47;5054682;28;20614;-69
2021/07/14 08:25:31;;;;;;;4.50;1.30;;;;;;;16.88;82.72;95154.84;5063241;28;20221;-69
2021/07/14 08:27:59;;;;;;;2.47;0.97;;;;;;;16.86;82.67;95161.47;5056682;28;20814;-70
2021/07/14 08:30:27;;;;;;;1.30;1.20;;;;;;;16.87;83.01;95169.22;5047645;28;20723;-70
2021/07/14 08:32:54;;;;;;;1.37;1.27;;;;;;;16.72;82.99;95161.69;5037991;28;20242;-70
2021/07/14 08:35:26;;;;;;;1.33;1.33;;;;;;;16.80;83.33;95167.72;5053033;28;20245;-70
2021/07/14 08:37:54;;;;;;;1.10;1.10;;;;;;;16.78;83.17;95165.28;5058519;28;20284;-70
2021/07/14 08:40:24;;;;;;;1.50;1.40;;;;;;;16.51;84.40;95178.25;5041061;28;20222;-70
2021/07/14 08:42:57;;;;;;;2.03;1.07;;;;;;;16.50;84.54;95179.31;5054719;28;20272;-70
2021/07/14 08:45:26;;;;;;;1.03;1.03;;;;;;;16.62;84.15;95182.75;5040060;28;20233;-69
2021/07/14 08:47:54;;;;;;;1.40;1.10;;;;;;;16.56;84.08;95183.72;5026661;28;20276;-69
2021/07/14 08:50:23;;;;;;;0.83;0.83;;;;;;;16.75;83.72;95181.75;5032716;28;20334;-69
2021/07/14 08:52:51;;;;;;;1.83;1.03;;;;;;;16.87;84.31;95176.41;5045727;28;20345;-69
2021/07/14 08:55:21;;;;;;;0.87;0.87;;;;;;;16.91;83.15;95180.22;5049364;28;20822;-70
2021/07/14 08:57:51;;;;;;;0.83;0.80;;;;;;;17.10;82.08;95184.38;5056612;28;21013;-70
2021/07/14 09:00:22;;;;;;;1.47;1.07;;;;;;;17.27;83.94;95195.88;5047919;28;20234;-70
2021/07/14 09:02:50;;;;;;;3.50;0.73;;;;;;;17.39;80.67;95203.06;5054032;28;20309;-70
2021/07/14 09:05:18;;;;;;;1.30;1.20;;;;;;;17.28;81.74;95207.34;5051515;28;20701;-70
2021/07/14 09:07:46;;;;;;;1.57;1.10;;;;;;;17.57;80.03;95208.22;5043966;28;20241;-69
2021/07/14 09:10:15;;;;;;;0.83;0.83;;;;;;;17.61;80.15;95212.00;5052255;28;20245;-70
2021/07/14 09:12:45;;;;;;;1.17;1.17;;;;;;;17.58;81.05;95220.50;5059882;28;20249;-69
2021/07/14 09:15:17;;;;;;;3.13;1.40;;;;;;;17.60;79.81;95215.72;5049668;28;20757;-70
2021/07/14 09:17:46;;;;;;;1.33;1.23;;;;;;;17.50;80.45;95216.34;5050191;28;20219;-70
2021/07/14 09:20:19;;;;;;;1.13;1.03;;;;;;;17.61;79.81;95217.34;5050341;28;20221;-70
2021/07/14 09:22:48;;;;;;;1.80;1.13;;;;;;;17.73;78.31;95204.78;5049888;28;20237;-69
2021/07/14 09:25:18;;;;;;;4.70;1.10;;;;;;;17.59;80.75;95214.09;5036257;28;20686;-69
2021/07/14 09:27:54;;;;;;;9.07;1.20;;;;;;;17.56;80.67;95203.94;5049940;28;20256;-70
2021/07/14 09:30:26;;;;;;;3.30;2.00;;;;;;;17.57;79.26;95210.88;5052330;28;20302;-69
2021/07/14 09:32:56;;;;;;;2.13;1.00;;;;;;;17.52;79.22;95214.25;5037418;28;20801;-70
2021/07/14 09:35:26;;;;;;;0.83;0.83;;;;;;;17.67;78.35;95211.06;5034515;28;20242;-70
2021/07/14 09:37:58;;;;;;;0.73;0.73;;;;;;;17.93;79.07;95214.22;5040717;28;20222;-70
2021/07/14 09:40:26;;;;;;;1.50;1.37;;;;;;;17.91;77.47;95217.13;5051885;28;20752;-70
2021/07/14 09:43:01;;;;;;;2.97;1.07;;;;;;;17.87;78.86;95205.31;5058991;28;20221;-69
2021/07/14 09:45:40;;;;;;;6.97;1.10;;;;;;;17.82;77.68;95194.53;5026069;28;20288;-69
2021/07/14 09:48:09;;;;;;;1.50;1.00;;;;;;;17.84;78.44;95193.25;5052174;28;20230;-70
2021/07/14 09:50:39;;;;;;;1.10;1.10;;;;;;;18.06;78.70;95192.53;5053728;28;20306;-69
2021/07/14 09:53:09;;;;;;;1.53;0.90;;;;;;;18.11;77.89;95201.47;5051505;28;20532;-70
2021/07/14 09:55:59;;;;;;;1.00;1.00;;;;;;;18.52;76.73;95206.63;5057890;28;20246;-70
2021/07/14 09:58:29;;;;;;;0.70;0.70;;;;;;;18.85;74.92;95217.31;5047439;28;20231;-69
2021/07/14 10:00:59;;;;;;;0.93;0.67;;;;;;;19.10;75.65;95224.84;5035064;28;20303;-70
2021/07/14 10:03:32;;;;;;;1.50;0.90;;;;;;;18.76;73.43;95240.16;5046800;28;20318;-69
2021/07/14 10:06:11;;;;;;;2.30;0.90;;;;;;;18.80;73.57;95235.94;5044794;28;20767;-69
2021/07/14 10:08:40;;;;;;;1.37;0.80;;;;;;;19.37;74.71;95224.13;5045683;28;20226;-70
2021/07/14 10:11:14;;;;;;;1.47;1.00;;;;;;;19.30;73.91;95218.97;5053031;28;20226;-70
2021/07/14 10:13:58;;;;;;;1.40;1.00;;;;;;;19.58;71.11;95210.78;5033634;28;20615;-69
2021/07/14 10:16:30;;;;;;;0.70;0.70;;;;;;;19.37;72.44;95203.50;5026904;28;20233;-70
2021/07/14 10:19:01;;;;;;;0.73;0.73;;;;;;;19.40;71.08;95203.03;5055332;28;20225;-69
2021/07/14 10:21:31;;;;;;;0.77;0.77;;;;;;;19.14;70.55;95199.25;5057731;28;20782;-69
2021/07/14 10:24:00;;;;;;;8.13;1.90;;;;;;;19.08;72.69;95210.91;5042573;28;20317;-68
2021/07/14 10:26:28;;;;;;;1.03;1.00;;;;;;;19.07;71.58;95213.84;5056254;28;20210;-67
2021/07/14 10:28:57;;;;;;;1.43;0.67;;;;;;;18.98;71.82;95214.28;5049481;28;20226;-66
2021/07/14 10:31:27;;;;;;;1.10;0.90;;;;;;;18.90;74.18;95214.69;5046688;28;20237;-68
2021/07/14 10:33:56;;;;;;;1.57;0.60;;;;;;;18.94;72.76;95220.38;5062955;28;20260;-68
2021/07/14 10:36:27;;;;;;;1.17;0.67;;;;;;;19.24;72.22;95222.63;5039594;28;20275;-67
2021/07/14 10:38:59;;;;;;;6.30;1.27;;;;;;;19.18;71.37;95210.25;5053956;28;20261;-68
2021/07/14 10:41:29;;;;;;;0.80;0.80;;;;;;;19.46;69.11;95212.72;5065667;28;20214;-69
2021/07/14 10:43:58;;;;;;;2.20;0.70;;;;;;;19.62;71.51;95226.31;5057225;28;20225;-68
2021/07/14 10:46:30;;;;;;;3.77;1.47;;;;;;;19.56;70.08;95220.91;5068377;28;20304;-68
2021/07/14 10:49:00;;;;;;;1.30;0.50;;;;;;;19.83;70.90;95217.44;5059752;28;20497;-67
2021/07/14 10:51:30;;;;;;;4.63;0.77;;;;;;;19.19;70.67;95222.56;5031542;28;20712;-67
2021/07/14 10:54:02;;;;;;;0.77;0.77;;;;;;;18.96;70.49;95218.25;5032992;28;20564;-67
2021/07/14 10:56:34;;;;;;;0.80;0.80;;;;;;;19.16;71.47;95217.72;5056862;28;20226;-68
2021/07/14 10:59:03;;;;;;;0.70;0.70;;;;;;;20.00;71.09;95211.97;5043679;28;20227;-68
2021/07/14 11:01:44;;;;;;;0.93;0.93;;;;;;;20.40;68.95;95206.19;5047724;28;20301;-68
2021/07/14 11:04:34;;;;;;;0.60;0.60;;;;;;;20.36;66.53;95202.38;5037958;28;20306;-67
2021/07/14 11:07:06;;;;;;;0.77;0.67;;;;;;;20.79;70.49;95195.22;5050133;28;20322;-68
2021/07/14 11:09:34;;;;;;;0.70;0.70;;;;;;;20.06;67.73;95205.63;5022784;28;20761;-67
2021/07/14 11:12:04;;;;;;;2.53;0.83;;;;;;;19.80;68.59;95212.59;5059041;28;20630;-67
2021/07/14 11:14:36;;;;;;;1.27;1.00;;;;;;;20.48;68.66;95208.41;5053595;28;20303;-68
2021/07/14 11:17:07;;;;;;;1.17;0.67;;;;;;;20.47;66.49;95206.78;5059811;28;20240;-68
2021/07/14 11:19:48;;;;;;;0.73;0.73;;;;;;;20.82;63.18;95211.59;5037105;28;20226;-68
2021/07/14 11:22:16;;;;;;;0.90;0.90;;;;;;;21.41;64.01;95203.34;5054427;28;20935;-68
2021/07/14 11:24:58;;;;;;;1.90;0.77;;;;;;;21.53;64.14;95211.97;5010774;28;20264;-68
2021/07/14 11:27:51;;;;;;;0.60;0.60;;;;;;;20.70;64.26;95201.06;5061827;28;20224;-68
2021/07/14 11:30:26;;;;;;;8.23;1.37;;;;;;;20.56;64.09;95215.16;5057444;28;20269;-68
2021/07/14 11:32:58;;;;;;;0.60;0.60;;;;;;;20.74;66.52;95207.50;5047660;28;20242;-68
2021/07/14 11:35:36;;;;;;;2.30;0.50;;;;;;;21.47;64.52;95209.53;5046233;28;20313;-68
2021/07/14 11:38:06;;;;;;;0.57;0.57;;;;;;;21.58;65.38;95205.81;5064152;28;20213;-68
2021/07/14 11:40:42;;;;;;;0.83;0.83;;;;;;;21.14;60.92;95200.78;5052123;28;20241;-68
2021/07/14 11:43:23;;;;;;;1.07;0.50;;;;;;;21.34;64.55;95210.03;5030472;28;20344;-67
2021/07/14 11:45:57;;;;;;;0.43;0.40;;;;;;;20.89;63.08;95214.06;5048350;28;20249;-69
2021/07/14 11:48:31;;;;;;;1.17;0.40;;;;;;;21.24;62.20;95222.28;5047645;28;20747;-68
2021/07/14 11:51:02;;;;;;;0.50;0.50;;;;;;;21.49;63.09;95228.88;5031247;28;20308;-69
2021/07/14 11:53:42;;;;;;;0.53;0.53;;;;;;;21.00;63.41;95227.25;5045028;28;21737;-68
2021/07/14 11:56:13;;;;;;;1.57;1.47;;;;;;;20.08;68.87;95231.09;5050644;28;20303;-68